createdAt,value
2023-02-27T00:00:14.887Z,4.27
2023-02-27T00:02:44.161Z,4.55
2023-02-27T00:05:12.022Z,5.61
2023-02-27T00:07:39.820Z,4.40
2023-02-27T00:10:07.932Z,4.73
2023-02-27T00:12:37.734Z,5.38
2023-02-27T00:15:06.463Z,5.17
2023-02-27T00:17:34.122Z,5.27
2023-02-27T00:20:04.239Z,5.62
2023-02-27T00:22:31.979Z,5.56
2023-02-27T00:24:59.644Z,6.02
2023-02-27T00:27:27.284Z,6.04
2023-02-27T00:29:54.909Z,6.06
2023-02-27T00:32:22.585Z,5.98
2023-02-27T00:34:50.279Z,6.47
2023-02-27T00:37:19.815Z,6.11
2023-02-27T00:39:48.314Z,6.45
2023-02-27T00:42:15.956Z,6.14
2023-02-27T00:44:43.615Z,5.74
2023-02-27T00:47:11.246Z,5.82
2023-02-27T00:49:40.544Z,6.06
2023-02-27T00:52:09.635Z,5.70
2023-02-27T00:54:38.672Z,5.60
2023-02-27T00:57:06.459Z,6.24
2023-02-27T00:59:34.553Z,6.03
2023-02-27T01:02:02.224Z,5.69
2023-02-27T01:04:29.874Z,5.05
2023-02-27T01:06:57.573Z,5.36
2023-02-27T01:09:27.469Z,5.98
2023-02-27T01:11:57.537Z,5.84
2023-02-27T01:14:25.221Z,5.72
2023-02-27T01:16:53.037Z,6.46
2023-02-27T01:19:20.740Z,5.74
2023-02-27T01:21:48.415Z,6.06
2023-02-27T01:24:16.509Z,5.62
2023-02-27T01:26:44.796Z,5.50
2023-02-27T01:29:13.951Z,5.94
2023-02-27T01:31:41.687Z,5.51
2023-02-27T01:34:09.475Z,5.89
2023-02-27T01:36:37.129Z,5.63
2023-02-27T01:39:04.950Z,6.45
2023-02-27T01:41:33.698Z,6.81
2023-02-27T01:44:03.804Z,6.15
2023-02-27T01:46:33.071Z,5.65
2023-02-27T01:49:01.717Z,5.32
2023-02-27T01:51:31.470Z,5.55
2023-02-27T01:53:59.218Z,5.15
2023-02-27T01:56:27.366Z,5.97
2023-02-27T01:58:55.812Z,5.07
2023-02-27T02:01:25.318Z,5.33
2023-02-27T02:03:56.423Z,5.44
2023-02-27T02:06:25.298Z,5.95
2023-02-27T02:08:53.059Z,5.75
2023-02-27T02:11:21.232Z,5.64
2023-02-27T02:13:49.743Z,5.83
2023-02-27T02:16:22.673Z,5.40
2023-02-27T02:18:57.030Z,5.30
2023-02-27T02:21:54.889Z,4.81
2023-02-27T02:24:52.920Z,4.05
2023-02-27T02:27:25.661Z,4.26
2023-02-27T02:29:59.450Z,4.41
2023-02-27T02:32:38.976Z,5.07
2023-02-27T02:35:24.596Z,4.59
2023-02-27T02:38:00.827Z,5.00
2023-02-27T02:40:31.391Z,5.28
2023-02-27T02:43:01.206Z,5.18
2023-02-27T02:45:29.195Z,5.53
2023-02-27T02:48:01.283Z,4.64
2023-02-27T02:50:30.253Z,5.10
2023-02-27T02:53:00.488Z,5.42
2023-02-27T02:55:30.135Z,5.56
2023-02-27T02:58:01.006Z,5.04
2023-02-27T03:00:29.220Z,4.53
2023-02-27T03:03:00.734Z,4.72
2023-02-27T03:05:30.792Z,5.34
2023-02-27T03:08:00.163Z,5.28
2023-02-27T03:10:28.488Z,5.83
2023-02-27T03:12:59.287Z,5.91
2023-02-27T03:15:29.341Z,6.01
2023-02-27T03:18:00.650Z,5.65
2023-02-27T03:20:29.357Z,5.23
2023-02-27T03:22:58.354Z,4.79
2023-02-27T03:25:26.311Z,5.46
2023-02-27T03:27:57.345Z,5.95
2023-02-27T03:30:26.719Z,5.54
2023-02-27T03:32:57.175Z,5.13
2023-02-27T03:35:25.608Z,5.53
2023-02-27T03:37:56.244Z,5.70
2023-02-27T03:40:26.232Z,6.15
2023-02-27T03:42:54.893Z,5.50
2023-02-27T03:45:49.287Z,5.52
2023-02-27T03:48:18.540Z,5.48
2023-02-27T03:50:46.191Z,5.74
2023-02-27T03:53:14.578Z,6.01
2023-02-27T03:55:42.549Z,5.91
2023-02-27T03:58:10.296Z,5.77
2023-02-27T04:00:37.988Z,5.67
2023-02-27T04:03:05.943Z,6.35
2023-02-27T04:05:35.036Z,6.33
2023-02-27T04:08:26.745Z,6.52
2023-02-27T04:11:05.334Z,6.20
2023-02-27T04:13:41.164Z,6.62
2023-02-27T04:16:15.709Z,6.51
2023-02-27T04:18:48.415Z,6.19
2023-02-27T04:21:20.159Z,6.54
2023-02-27T04:23:49.690Z,6.52
2023-02-27T04:26:18.820Z,6.60
2023-02-27T04:28:46.976Z,6.40
2023-02-27T04:31:16.421Z,6.00
2023-02-27T04:33:45.071Z,5.97
2023-02-27T04:36:13.858Z,5.14
2023-02-27T04:38:43.605Z,6.25
2023-02-27T04:41:13.018Z,6.64
2023-02-27T04:43:40.843Z,6.33
2023-02-27T04:46:09.466Z,6.91
2023-02-27T04:48:38.123Z,6.59
2023-02-27T04:51:06.768Z,6.79
2023-02-27T04:53:35.730Z,6.29
2023-02-27T04:56:05.772Z,6.65
2023-02-27T04:58:34.810Z,6.82
2023-02-27T05:01:02.850Z,6.81
2023-02-27T05:03:32.162Z,6.90
2023-02-27T05:06:00.013Z,6.44
2023-02-27T05:08:29.125Z,5.57
2023-02-27T05:10:58.600Z,6.19
2023-02-27T05:13:27.971Z,6.52
2023-02-27T05:15:56.706Z,6.19
2023-02-27T05:18:24.378Z,6.34
2023-02-27T05:20:53.808Z,6.44
2023-02-27T05:23:23.648Z,6.45
2023-02-27T05:25:51.870Z,5.57
2023-02-27T05:28:20.346Z,5.51
2023-02-27T05:30:51.032Z,5.11
2023-02-27T05:33:19.211Z,5.32
2023-02-27T05:35:48.409Z,5.12
2023-02-27T05:38:17.123Z,5.48
2023-02-27T05:40:45.857Z,5.09
2023-02-27T05:43:14.107Z,5.28
2023-02-27T05:45:42.104Z,4.63
2023-02-27T05:48:12.470Z,3.93
2023-02-27T05:50:40.223Z,3.98
2023-02-27T05:53:09.123Z,3.76
2023-02-27T05:55:37.472Z,3.85
2023-02-27T05:58:06.814Z,4.69
2023-02-27T06:00:34.771Z,3.52
2023-02-27T06:03:02.434Z,4.13
2023-02-27T06:05:31.486Z,3.95
2023-02-27T06:07:59.144Z,3.78
2023-02-27T06:10:29.471Z,3.46
2023-02-27T06:12:57.100Z,2.93
2023-02-27T06:15:24.727Z,3.12
2023-02-27T06:17:52.405Z,4.87
2023-02-27T06:20:20.049Z,4.91
2023-02-27T06:22:49.148Z,5.28
2023-02-27T06:25:16.793Z,4.55
2023-02-27T06:27:44.428Z,4.31
2023-02-27T06:30:12.704Z,4.76
2023-02-27T06:32:40.403Z,4.62
2023-02-27T06:35:08.450Z,5.63
2023-02-27T06:37:36.180Z,5.99
2023-02-27T06:40:05.862Z,5.57
2023-02-27T06:42:33.522Z,5.58
2023-02-27T06:45:01.174Z,5.42
2023-02-27T06:47:28.828Z,5.85
2023-02-27T06:49:57.307Z,4.31
2023-02-27T06:52:24.967Z,3.88
2023-02-27T06:54:52.706Z,3.96
2023-02-27T06:57:21.763Z,5.53
2023-02-27T06:59:49.363Z,4.19
2023-02-27T07:02:17.511Z,4.62
2023-02-27T07:04:45.617Z,6.32
2023-02-27T07:07:34.078Z,7.00
2023-02-27T07:10:02.458Z,6.91
2023-02-27T07:12:31.493Z,6.83
2023-02-27T07:14:59.104Z,6.90
2023-02-27T07:17:26.841Z,7.11
2023-02-27T07:19:54.643Z,7.24
2023-02-27T07:22:22.341Z,7.25
2023-02-27T07:24:50.029Z,7.60
2023-02-27T07:27:17.704Z,7.23
2023-02-27T07:29:46.790Z,7.35
2023-02-27T07:32:14.536Z,7.70
2023-02-27T07:34:42.234Z,7.20
2023-02-27T07:37:09.927Z,7.68
2023-02-27T07:39:37.617Z,7.60
2023-02-27T07:42:05.261Z,8.08
2023-02-27T07:44:34.513Z,7.88
2023-02-27T07:47:03.564Z,7.88
2023-02-27T07:49:31.216Z,7.46
2023-02-27T07:51:58.882Z,8.10
2023-02-27T07:54:27.682Z,8.26
2023-02-27T07:56:55.318Z,8.26
2023-02-27T07:59:22.957Z,7.75
2023-02-27T08:01:50.595Z,8.43
2023-02-27T08:04:19.613Z,8.52
2023-02-27T08:06:47.425Z,8.71
2023-02-27T08:09:15.089Z,9.03
2023-02-27T08:11:42.803Z,8.62
2023-02-27T08:14:10.561Z,7.76
2023-02-27T08:16:38.287Z,8.35
2023-02-27T08:19:06.030Z,8.07
2023-02-27T08:21:35.057Z,8.35
2023-02-27T08:24:02.743Z,8.33
2023-02-27T08:26:31.247Z,8.69
2023-02-27T08:28:59.034Z,9.09
2023-02-27T08:31:26.699Z,9.46
2023-02-27T08:34:07.790Z,7.85
2023-02-27T08:36:38.362Z,8.20
2023-02-27T08:39:06.014Z,8.32
2023-02-27T08:41:33.657Z,8.63
2023-02-27T08:44:01.371Z,9.08
2023-02-27T08:46:29.283Z,8.76
2023-02-27T08:48:57.189Z,9.09
2023-02-27T08:51:25.006Z,9.08
2023-02-27T08:53:55.883Z,8.58
2023-02-27T08:56:23.526Z,8.47
2023-02-27T08:58:51.179Z,8.58
2023-02-27T09:01:18.895Z,9.08
2023-02-27T09:03:46.532Z,9.23
2023-02-27T09:06:14.211Z,10.23
2023-02-27T09:08:41.878Z,10.23
2023-02-27T09:11:10.883Z,9.74
2023-02-27T09:13:38.529Z,9.58
2023-02-27T09:16:06.518Z,9.43
2023-02-27T09:18:34.186Z,10.58
2023-02-27T09:21:01.871Z,10.56
2023-02-27T09:23:29.552Z,11.32
2023-02-27T09:25:57.196Z,11.14
2023-02-27T09:28:26.226Z,11.22
2023-02-27T09:30:53.883Z,11.26
2023-02-27T09:33:21.614Z,11.23
2023-02-27T09:35:49.360Z,11.53
2023-02-27T09:38:17.070Z,9.81
2023-02-27T09:40:44.841Z,10.63
2023-02-27T09:43:18.499Z,11.51
2023-02-27T09:45:48.510Z,11.05
2023-02-27T09:48:17.048Z,11.36
2023-02-27T09:50:45.267Z,11.34
2023-02-27T09:53:13.700Z,11.56
2023-02-27T09:55:41.736Z,12.54
2023-02-27T09:58:13.526Z,12.44
2023-02-27T10:00:45.445Z,12.22
2023-02-27T10:03:17.952Z,11.20
2023-02-27T10:05:46.887Z,12.16
2023-02-27T10:08:16.663Z,11.05
2023-02-27T10:10:45.306Z,11.05
2023-02-27T10:13:20.923Z,11.48
2023-02-27T10:15:49.040Z,11.39
2023-02-27T10:18:26.838Z,10.85
2023-02-27T10:20:57.144Z,12.20
2023-02-27T10:23:28.006Z,12.15
2023-02-27T10:25:55.767Z,11.80
2023-02-27T10:28:23.495Z,11.63
2023-02-27T10:30:52.090Z,12.79
2023-02-27T10:33:23.988Z,12.16
2023-02-27T10:35:53.537Z,12.11
2023-02-27T10:38:22.432Z,12.76
2023-02-27T10:40:50.057Z,12.15
2023-02-27T10:43:19.222Z,13.83
2023-02-27T10:45:46.976Z,14.45
2023-02-27T10:48:14.658Z,13.13
2023-02-27T10:50:44.164Z,12.91
2023-02-27T10:53:19.212Z,11.83
2023-02-27T10:55:48.585Z,12.78
2023-02-27T10:58:19.292Z,12.08
2023-02-27T11:00:48.800Z,12.46
2023-02-27T11:03:20.100Z,12.70
2023-02-27T11:05:54.416Z,12.59
2023-02-27T11:08:22.703Z,12.02
2023-02-27T11:10:54.507Z,11.93
2023-02-27T11:13:23.069Z,13.31
2023-02-27T11:16:03.159Z,14.38
2023-02-27T11:18:31.167Z,13.00
2023-02-27T11:21:12.012Z,12.70
2023-02-27T11:23:39.846Z,12.56
2023-02-27T11:26:12.001Z,13.70
2023-02-27T11:28:39.696Z,13.14
2023-02-27T11:31:07.982Z,11.83
2023-02-27T11:33:37.076Z,12.05
2023-02-27T11:36:05.234Z,12.02
2023-02-27T11:38:34.844Z,11.71
2023-02-27T11:41:02.860Z,11.61
2023-02-27T11:43:31.048Z,11.20
2023-02-27T11:46:28.222Z,10.80
2023-02-27T11:48:48.557Z,10.68
2023-02-27T11:51:26.443Z,9.36
2023-02-27T11:54:02.738Z,10.55
2023-02-27T11:56:31.436Z,11.43
2023-02-27T11:59:00.702Z,11.42
2023-02-27T12:01:29.459Z,11.82
2023-02-27T12:03:59.606Z,10.78
2023-02-27T12:06:27.885Z,11.77
2023-02-27T12:08:56.096Z,11.26
2023-02-27T12:11:28.229Z,10.88
2023-02-27T12:13:58.298Z,12.40
2023-02-27T12:16:31.676Z,11.62
2023-02-27T12:19:00.774Z,11.28
2023-02-27T12:21:28.677Z,11.56
2023-02-27T12:23:57.496Z,11.42
2023-02-27T12:26:27.449Z,11.71
2023-02-27T12:28:56.334Z,12.32
2023-02-27T12:31:28.963Z,11.62
2023-02-27T12:33:58.400Z,10.69
2023-02-27T12:36:26.004Z,12.48
2023-02-27T12:38:53.689Z,11.85
2023-02-27T12:41:43.858Z,11.48
2023-02-27T12:44:17.552Z,11.61
2023-02-27T12:46:47.134Z,11.20
2023-02-27T12:49:17.623Z,11.49
2023-02-27T12:51:48.440Z,11.51
2023-02-27T12:54:19.911Z,11.14
2023-02-27T12:56:51.304Z,12.25
2023-02-27T12:59:25.387Z,10.79
2023-02-27T13:01:56.290Z,10.50
2023-02-27T13:04:25.344Z,10.45
2023-02-27T13:06:53.893Z,10.81
2023-02-27T13:09:23.510Z,10.26
2023-02-27T13:11:55.909Z,10.77
2023-02-27T13:14:33.754Z,11.40
2023-02-27T13:17:02.285Z,10.47
2023-02-27T13:19:30.471Z,10.38
2023-02-27T13:22:01.080Z,11.49
2023-02-27T13:24:29.190Z,11.97
2023-02-27T13:26:58.938Z,12.01
2023-02-27T13:29:27.664Z,10.78
2023-02-27T13:32:00.088Z,10.97
2023-02-27T13:34:28.601Z,12.51
2023-02-27T13:36:57.350Z,13.45
2023-02-27T13:39:38.429Z,12.43
2023-02-27T13:42:06.114Z,12.31
2023-02-27T13:44:42.865Z,12.82
2023-02-27T13:47:29.226Z,12.83
2023-02-27T13:49:58.421Z,12.70
2023-02-27T13:52:29.085Z,13.04
2023-02-27T13:54:59.871Z,13.03
2023-02-27T13:57:31.383Z,13.25
2023-02-27T13:59:59.898Z,12.65
2023-02-27T14:02:32.048Z,12.11
2023-02-27T14:05:03.190Z,11.64
2023-02-27T14:07:33.233Z,11.50
2023-02-27T14:10:01.412Z,10.76
2023-02-27T14:12:39.159Z,12.01
2023-02-27T14:15:36.299Z,12.26
2023-02-27T14:18:17.891Z,11.17
2023-02-27T14:20:52.497Z,11.32
2023-02-27T14:23:21.907Z,11.18
2023-02-27T14:25:52.061Z,11.79
2023-02-27T14:28:23.292Z,11.43
2023-02-27T14:30:54.794Z,10.85
2023-02-27T14:33:37.488Z,10.42
2023-02-27T14:36:09.077Z,9.54
2023-02-27T14:38:38.268Z,8.97
2023-02-27T14:41:11.057Z,9.88
2023-02-27T14:43:40.422Z,9.99
2023-02-27T14:46:08.923Z,10.48
2023-02-27T14:48:37.963Z,11.35
2023-02-27T14:51:06.017Z,11.23
2023-02-27T14:53:36.187Z,11.66
2023-02-27T14:56:04.000Z,11.27
2023-02-27T14:58:31.671Z,11.17
2023-02-27T15:01:03.156Z,10.34
2023-02-27T15:03:33.693Z,10.61
2023-02-27T15:06:02.140Z,11.84
2023-02-27T15:08:30.730Z,11.60
2023-02-27T15:10:59.953Z,11.40
2023-02-27T15:13:28.611Z,12.48
2023-02-27T15:16:16.372Z,12.13
2023-02-27T15:18:44.381Z,11.75
2023-02-27T15:21:13.323Z,11.88
2023-02-27T15:23:40.956Z,10.67
2023-02-27T15:26:12.707Z,11.75
2023-02-27T15:28:40.372Z,11.69
2023-02-27T15:31:08.606Z,12.14
2023-02-27T15:33:36.222Z,12.29
2023-02-27T15:36:04.045Z,12.10
2023-02-27T15:38:32.764Z,12.46
2023-02-27T15:41:00.964Z,12.45
2023-02-27T15:43:30.352Z,12.06
2023-02-27T15:45:58.209Z,12.07
2023-02-27T15:48:26.147Z,12.12
2023-02-27T15:50:54.184Z,12.10
2023-02-27T15:53:22.419Z,12.40
2023-02-27T15:55:50.673Z,12.12
2023-02-27T15:58:20.518Z,11.88
2023-02-27T16:00:49.988Z,12.10
2023-02-27T16:03:18.876Z,11.60
2023-02-27T16:05:50.612Z,11.98
2023-02-27T16:08:19.249Z,12.30
2023-02-27T16:10:46.979Z,12.03
2023-02-27T16:13:21.097Z,12.20
2023-02-27T16:16:00.731Z,12.30
2023-02-27T16:18:29.508Z,11.88
2023-02-27T16:20:59.643Z,11.45
2023-02-27T16:23:27.747Z,11.36
2023-02-27T16:26:02.354Z,11.49
2023-02-27T16:28:31.106Z,11.29
2023-02-27T16:31:00.326Z,11.28
2023-02-27T16:33:28.747Z,11.46
2023-02-27T16:36:05.321Z,11.75
2023-02-27T16:38:33.020Z,11.82
2023-02-27T16:41:00.932Z,11.39
2023-02-27T16:43:28.655Z,11.37
2023-02-27T16:45:58.417Z,11.69
2023-02-27T16:48:27.776Z,11.76
2023-02-27T16:50:55.454Z,11.60
2023-02-27T16:53:23.061Z,11.54
2023-02-27T16:55:50.926Z,11.41
2023-02-27T16:58:18.973Z,11.43
2023-02-27T17:00:46.773Z,11.29
2023-02-27T17:03:14.617Z,11.11
2023-02-27T17:05:43.717Z,11.47
2023-02-27T17:08:11.833Z,11.38
2023-02-27T17:10:39.521Z,11.65
2023-02-27T17:13:07.268Z,10.75
2023-02-27T17:15:34.993Z,11.11
2023-02-27T17:18:02.630Z,10.84
2023-02-27T17:20:30.440Z,10.97
2023-02-27T17:22:59.538Z,11.25
2023-02-27T17:25:27.938Z,11.38
2023-02-27T17:27:55.686Z,11.23
2023-02-27T17:30:23.456Z,11.43
2023-02-27T17:32:51.389Z,11.38
2023-02-27T17:35:19.149Z,11.67
2023-02-27T17:37:46.971Z,11.44
2023-02-27T17:40:16.302Z,11.40
2023-02-27T17:42:43.901Z,11.08
2023-02-27T17:45:12.006Z,11.10
2023-02-27T17:47:39.628Z,11.08
2023-02-27T17:50:07.463Z,11.28
2023-02-27T17:52:36.138Z,10.75
2023-02-27T17:55:04.473Z,11.01
2023-02-27T17:57:34.287Z,10.71
2023-02-27T18:00:04.189Z,10.61
2023-02-27T18:02:32.431Z,10.48
2023-02-27T18:05:00.051Z,10.59
2023-02-27T18:07:27.649Z,10.81
2023-02-27T18:09:55.259Z,10.73
2023-02-27T18:12:23.198Z,10.96
2023-02-27T18:14:52.199Z,11.47
2023-02-27T18:17:19.807Z,11.33
2023-02-27T18:19:47.415Z,11.27
2023-02-27T18:22:16.234Z,11.24
2023-02-27T18:24:43.862Z,11.15
2023-02-27T18:27:11.660Z,11.24
2023-02-27T18:29:39.289Z,11.29
2023-02-27T18:32:09.705Z,11.13
2023-02-27T18:34:37.510Z,11.04
2023-02-27T18:37:05.105Z,10.94
2023-02-27T18:39:32.745Z,11.00
2023-02-27T18:42:00.383Z,10.86
2023-02-27T18:44:27.979Z,10.70
2023-02-27T18:46:55.784Z,11.14
2023-02-27T18:49:24.818Z,11.56
2023-02-27T18:51:52.435Z,11.72
2023-02-27T18:54:20.139Z,12.02
2023-02-27T18:56:48.516Z,12.74
2023-02-27T18:59:16.192Z,13.31
2023-02-27T19:01:43.847Z,13.14
2023-02-27T19:04:11.542Z,12.79
2023-02-27T19:06:42.201Z,12.16
2023-02-27T19:09:10.922Z,11.83
2023-02-27T19:11:38.524Z,11.90
2023-02-27T19:14:07.328Z,11.78
2023-02-27T19:16:35.157Z,11.39
2023-02-27T19:19:03.253Z,11.27
2023-02-27T19:21:30.961Z,11.29
2023-02-27T19:24:00.031Z,11.35
2023-02-27T19:26:28.070Z,11.09
2023-02-27T19:28:56.429Z,11.08
2023-02-27T19:31:24.673Z,11.16
2023-02-27T19:33:52.366Z,11.07
2023-02-27T19:36:20.893Z,11.10
2023-02-27T19:38:48.750Z,10.50
2023-02-27T19:41:17.834Z,10.71
2023-02-27T19:43:45.565Z,10.67
2023-02-27T19:46:13.932Z,10.77
2023-02-27T19:48:41.584Z,10.80
2023-02-27T19:51:10.280Z,10.80
2023-02-27T19:53:40.314Z,10.88
2023-02-27T19:56:08.832Z,10.82
2023-02-27T19:58:38.614Z,10.49
2023-02-27T20:01:06.639Z,10.59
2023-02-27T20:03:35.057Z,10.61
2023-02-27T20:06:05.897Z,10.64
2023-02-27T20:08:33.641Z,10.39
2023-02-27T20:11:01.802Z,9.96
2023-02-27T20:13:29.496Z,9.82
2023-02-27T20:15:59.394Z,9.62
2023-02-27T20:18:27.656Z,9.43
2023-02-27T20:21:01.808Z,10.13
2023-02-27T20:23:29.616Z,10.38
2023-02-27T20:25:57.464Z,10.36
2023-02-27T20:28:25.091Z,10.42
2023-02-27T20:30:52.710Z,10.13
2023-02-27T20:33:21.656Z,10.43
2023-02-27T20:35:49.328Z,10.35
2023-02-27T20:38:19.884Z,10.21
2023-02-27T20:40:47.539Z,10.43
2023-02-27T20:43:15.187Z,10.21
2023-02-27T20:45:42.754Z,10.14
2023-02-27T20:48:10.462Z,10.12
2023-02-27T20:50:39.472Z,10.30
2023-02-27T20:53:07.226Z,10.50
2023-02-27T20:55:34.863Z,10.77
2023-02-27T20:58:02.590Z,10.71
2023-02-27T21:00:30.253Z,10.79
2023-02-27T21:03:00.760Z,10.91
2023-02-27T21:05:28.408Z,10.90
2023-02-27T21:07:57.918Z,10.74
2023-02-27T21:10:25.546Z,10.87
2023-02-27T21:12:53.477Z,10.75
2023-02-27T21:15:21.102Z,10.83
2023-02-27T21:17:48.761Z,10.89
2023-02-27T21:20:16.362Z,10.70
2023-02-27T21:22:44.045Z,10.75
2023-02-27T21:25:13.377Z,10.64
2023-02-27T21:27:41.181Z,10.52
2023-02-27T21:30:11.015Z,10.20
2023-02-27T21:32:38.822Z,10.12
2023-02-27T21:35:06.728Z,10.07
2023-02-27T21:37:34.499Z,9.55
2023-02-27T21:40:04.233Z,9.67
2023-02-27T21:42:33.429Z,9.94
2023-02-27T21:45:01.025Z,10.02
2023-02-27T21:47:30.042Z,10.00
2023-02-27T21:49:57.862Z,10.07
2023-02-27T21:52:25.540Z,9.79
2023-02-27T21:54:54.056Z,9.43
2023-02-27T21:57:23.076Z,9.59
2023-02-27T21:59:52.413Z,9.25
2023-02-27T22:02:20.166Z,9.42
2023-02-27T22:04:47.973Z,9.69
2023-02-27T22:07:15.630Z,9.86
2023-02-27T22:09:43.208Z,9.99
2023-02-27T22:12:12.841Z,9.88
2023-02-27T22:14:43.214Z,9.92
2023-02-27T22:17:12.308Z,10.05
2023-02-27T22:19:40.063Z,9.95
2023-02-27T22:22:07.731Z,9.97
2023-02-27T22:24:35.931Z,9.81
2023-02-27T22:27:04.106Z,9.81
2023-02-27T22:29:31.782Z,9.96
2023-02-27T22:31:59.418Z,9.89
2023-02-27T22:34:28.488Z,9.86
2023-02-27T22:36:56.163Z,9.73
2023-02-27T22:39:23.850Z,9.10
2023-02-27T22:41:51.467Z,8.50
2023-02-27T22:44:19.187Z,9.01
2023-02-27T22:46:47.602Z,9.78
2023-02-27T22:49:16.203Z,9.76
2023-02-27T22:51:46.536Z,9.84
2023-02-27T22:54:14.921Z,9.79
2023-02-27T22:56:42.756Z,9.74
2023-02-27T22:59:10.580Z,9.17
2023-02-27T23:01:38.783Z,9.59
2023-02-27T23:04:06.861Z,9.31
2023-02-27T23:06:35.103Z,9.28
2023-02-27T23:09:04.599Z,9.42
2023-02-27T23:11:32.379Z,9.85
2023-02-27T23:13:59.972Z,9.74
2023-02-27T23:16:27.804Z,9.46
2023-02-27T23:18:55.986Z,9.54
2023-02-27T23:21:25.058Z,9.70
2023-02-27T23:23:53.772Z,9.56
2023-02-27T23:26:22.907Z,9.79
2023-02-27T23:28:50.489Z,9.59
2023-02-27T23:31:18.496Z,9.70
2023-02-27T23:33:46.376Z,9.65
2023-02-27T23:36:15.323Z,9.54
2023-02-27T23:38:46.423Z,9.60
2023-02-27T23:41:16.710Z,9.75
2023-02-27T23:44:03.227Z,9.67
2023-02-27T23:46:31.194Z,9.78
2023-02-27T23:48:59.062Z,9.64
2023-02-27T23:51:29.096Z,9.69
2023-02-27T23:53:57.889Z,9.59
2023-02-27T23:56:26.926Z,9.44
2023-02-27T23:58:56.571Z,9.67
